createdAt,value
2023-02-13T00:00:00.181Z,69.28
2023-02-13T00:02:30.906Z,70.85
2023-02-13T00:05:01.604Z,67.20
2023-02-13T00:07:31.906Z,71.50
2023-02-13T00:10:01.951Z,71.47
2023-02-13T00:12:33.444Z,67.60
2023-02-13T00:15:03.059Z,67.45
2023-02-13T00:17:32.322Z,68.95
2023-02-13T00:20:02.056Z,72.38
2023-02-13T00:22:32.579Z,71.38
2023-02-13T00:25:01.540Z,70.57
2023-02-13T00:27:32.808Z,66.85
2023-02-13T00:30:01.613Z,68.55
2023-02-13T00:32:31.957Z,72.25
2023-02-13T00:35:01.153Z,71.72
2023-02-13T00:37:30.901Z,72.50
2023-02-13T00:40:01.035Z,69.95
2023-02-13T00:42:33.138Z,66.45
2023-02-13T00:45:02.339Z,75.22
2023-02-13T00:47:33.326Z,68.85
2023-02-13T00:50:02.484Z,71.75
2023-02-13T00:52:32.153Z,72.78
2023-02-13T00:55:02.335Z,69.68
2023-02-13T00:57:34.626Z,77.22
2023-02-13T01:00:04.233Z,69.38
2023-02-13T01:02:36.464Z,74.40
2023-02-13T01:05:07.276Z,72.05
2023-02-13T01:07:38.808Z,78.28
2023-02-13T01:10:11.988Z,75.40
2023-02-13T01:12:42.880Z,75.80
2023-02-13T01:15:13.321Z,76.30
2023-02-13T01:17:43.400Z,72.75
2023-02-13T01:20:15.778Z,80.80
2023-02-13T01:22:47.994Z,79.90
2023-02-13T01:25:18.884Z,75.90
2023-02-13T01:27:49.759Z,70.63
2023-02-13T01:30:21.007Z,75.35
2023-02-13T01:32:51.715Z,75.72
2023-02-13T01:35:22.056Z,75.38
2023-02-13T01:37:50.906Z,76.30
2023-02-13T01:40:20.588Z,79.82
2023-02-13T01:42:51.214Z,81.55
2023-02-13T01:45:29.665Z,77.70
2023-02-13T01:48:06.076Z,77.10
2023-02-13T01:50:44.985Z,76.25
2023-02-13T01:53:21.819Z,75.63
2023-02-13T01:55:55.974Z,76.95
2023-02-13T01:58:35.518Z,79.68
2023-02-13T02:01:07.586Z,81.03
2023-02-13T02:03:41.770Z,77.38
2023-02-13T02:06:18.063Z,73.10
2023-02-13T02:08:52.029Z,72.28
2023-02-13T02:11:36.060Z,76.80
2023-02-13T02:14:07.662Z,75.23
2023-02-13T02:16:36.514Z,70.88
2023-02-13T02:19:13.669Z,66.78
2023-02-13T02:22:38.459Z,75.60
2023-02-13T02:25:51.950Z,75.07
2023-02-13T02:29:33.254Z,72.55
2023-02-13T02:32:39.901Z,74.75
2023-02-13T02:38:09.853Z,72.93
2023-02-13T02:41:00.036Z,73.90
2023-02-13T02:43:50.136Z,71.18
2023-02-13T02:46:26.341Z,73.22
2023-02-13T02:49:25.058Z,70.25
2023-02-13T02:52:05.237Z,73.97
2023-02-13T02:55:17.682Z,71.57
2023-02-13T02:58:09.555Z,71.85
2023-02-13T03:01:01.450Z,72.07
2023-02-13T03:03:50.570Z,68.70
2023-02-13T03:06:28.806Z,71.85
2023-02-13T03:09:20.276Z,75.28
2023-02-13T03:12:42.970Z,71.28
2023-02-13T03:15:13.542Z,71.75
2023-02-13T03:17:59.778Z,72.75
2023-02-13T03:21:01.367Z,70.50
2023-02-13T03:23:46.782Z,64.28
2023-02-13T03:26:50.844Z,67.80
2023-02-13T03:29:57.604Z,67.80
2023-02-13T03:35:34.703Z,66.35
2023-02-13T03:38:13.414Z,65.35
2023-02-13T03:41:23.644Z,65.95
2023-02-13T03:44:03.859Z,66.68
2023-02-13T03:46:38.421Z,65.40
2023-02-13T03:49:29.536Z,68.83
2023-02-13T03:52:05.176Z,61.13
2023-02-13T03:55:02.470Z,70.30
2023-02-13T03:57:55.512Z,72.70
2023-02-13T04:00:28.461Z,64.32
2023-02-13T04:03:08.109Z,64.22
2023-02-13T04:05:44.585Z,64.03
2023-02-13T04:08:14.699Z,58.97
2023-02-13T04:10:58.891Z,62.42
2023-02-13T04:13:41.836Z,66.35
2023-02-13T04:16:21.278Z,65.30
2023-02-13T04:18:54.363Z,67.53
2023-02-13T04:21:28.161Z,61.10
2023-02-13T04:23:58.244Z,62.17
2023-02-13T04:26:31.917Z,60.10
2023-02-13T04:29:02.688Z,61.58
2023-02-13T04:31:32.461Z,60.95
2023-02-13T04:34:02.197Z,68.03
2023-02-13T04:36:32.330Z,64.47
2023-02-13T04:39:02.005Z,60.42
2023-02-13T04:41:32.083Z,63.15
2023-02-13T04:44:02.942Z,63.78
2023-02-13T04:46:37.169Z,68.97
2023-02-13T04:49:06.484Z,63.25
2023-02-13T04:51:36.068Z,61.15
2023-02-13T04:54:06.576Z,62.75
2023-02-13T04:56:36.050Z,62.30
2023-02-13T04:59:06.670Z,58.80
2023-02-13T05:01:38.456Z,62.50
2023-02-13T05:04:09.154Z,60.08
2023-02-13T05:06:39.295Z,60.85
2023-02-13T05:09:08.261Z,63.42
2023-02-13T05:11:37.494Z,65.22
2023-02-13T05:14:12.061Z,70.75
2023-02-13T05:16:42.179Z,61.03
2023-02-13T05:19:14.353Z,64.80
2023-02-13T05:22:03.963Z,61.67
2023-02-13T05:24:32.916Z,61.35
2023-02-13T05:27:03.544Z,57.83
2023-02-13T05:29:37.661Z,62.22
2023-02-13T05:32:08.634Z,56.38
2023-02-13T05:34:38.246Z,56.65
2023-02-13T05:37:09.107Z,58.72
2023-02-13T05:39:40.198Z,63.90
2023-02-13T05:42:11.514Z,60.63
2023-02-13T05:44:45.948Z,56.60
2023-02-13T05:47:17.313Z,58.87
2023-02-13T05:49:54.534Z,53.53
2023-02-13T05:52:25.140Z,56.72
2023-02-13T05:54:55.218Z,58.63
2023-02-13T05:57:24.886Z,63.75
2023-02-13T05:59:55.978Z,68.03
2023-02-13T06:02:25.361Z,53.55
2023-02-13T06:04:54.904Z,60.00
2023-02-13T06:07:27.150Z,53.97
2023-02-13T06:09:58.428Z,59.10
2023-02-13T06:12:32.400Z,56.78
2023-02-13T06:15:04.002Z,51.72
2023-02-13T06:17:33.487Z,59.08
2023-02-13T06:20:09.562Z,57.90
2023-02-13T06:22:40.241Z,58.78
2023-02-13T06:25:10.491Z,53.20
2023-02-13T06:27:42.220Z,60.90
2023-02-13T06:30:18.087Z,57.80
2023-02-13T06:32:49.612Z,62.13
2023-02-13T06:35:21.181Z,66.95
2023-02-13T06:37:54.088Z,53.58
2023-02-13T06:40:24.913Z,56.15
2023-02-13T06:42:54.304Z,66.72
2023-02-13T06:45:24.821Z,58.63
2023-02-13T06:47:53.709Z,54.17
2023-02-13T06:50:25.370Z,54.45
2023-02-13T06:52:56.512Z,59.17
2023-02-13T06:58:17.530Z,54.75
2023-02-13T07:00:50.271Z,61.03
2023-02-13T07:03:19.308Z,63.00
2023-02-13T07:05:52.074Z,53.80
2023-02-13T07:08:26.199Z,56.50
2023-02-13T07:10:58.419Z,56.28
2023-02-13T07:13:30.070Z,58.60
2023-02-13T07:16:05.654Z,62.05
2023-02-13T07:18:37.632Z,58.30
2023-02-13T07:21:09.851Z,58.80
2023-02-13T07:23:39.020Z,54.22
2023-02-13T07:26:11.609Z,55.80
2023-02-13T07:28:47.642Z,57.28
2023-02-13T07:31:20.928Z,55.55
2023-02-13T07:33:51.853Z,60.88
2023-02-13T07:36:28.632Z,54.13
2023-02-13T07:38:57.960Z,57.75
2023-02-13T07:41:27.779Z,58.45
2023-02-13T07:44:00.535Z,63.88
2023-02-13T07:46:32.191Z,54.20
2023-02-13T07:49:02.727Z,57.30
2023-02-13T07:51:36.810Z,54.25
2023-02-13T07:54:06.773Z,58.35
2023-02-13T07:56:36.273Z,50.22
2023-02-13T07:59:06.923Z,54.70
2023-02-13T08:01:38.425Z,53.28
2023-02-13T08:04:14.161Z,58.88
2023-02-13T08:06:44.045Z,59.28
2023-02-13T08:09:41.007Z,53.10
2023-02-13T08:12:12.283Z,53.58
2023-02-13T08:14:45.369Z,58.55
2023-02-13T08:17:17.342Z,53.72
2023-02-13T08:19:46.228Z,53.30
2023-02-13T08:22:19.133Z,57.08
2023-02-13T08:24:50.650Z,61.05
2023-02-13T08:27:20.594Z,51.10
2023-02-13T08:29:54.771Z,58.05
2023-02-13T08:32:26.189Z,52.95
2023-02-13T08:34:59.611Z,52.92
2023-02-13T08:37:29.621Z,51.65
2023-02-13T08:40:00.793Z,56.28
2023-02-13T08:42:31.579Z,52.50
2023-02-13T08:45:02.272Z,53.78
2023-02-13T08:47:36.222Z,55.53
2023-02-13T08:50:07.120Z,52.78
2023-02-13T08:52:36.615Z,51.55
2023-02-13T08:55:07.849Z,54.67
2023-02-13T08:57:38.391Z,54.10
2023-02-13T09:00:11.155Z,53.13
2023-02-13T09:02:43.548Z,53.40
2023-02-13T09:05:13.342Z,51.85
2023-02-13T09:07:43.377Z,53.75
2023-02-13T09:10:15.424Z,49.67
2023-02-13T09:12:47.624Z,52.55
2023-02-13T09:15:21.186Z,50.90
2023-02-13T09:17:52.225Z,50.70
2023-02-13T09:20:22.327Z,51.17
2023-02-13T09:22:51.240Z,52.35
2023-02-13T09:25:22.012Z,51.70
2023-02-13T09:27:51.506Z,49.50
2023-02-13T09:30:26.595Z,51.33
2023-02-13T09:32:57.853Z,50.00
2023-02-13T09:35:29.412Z,51.97
2023-02-13T09:38:03.616Z,53.70
2023-02-13T09:40:40.406Z,50.22
2023-02-13T09:43:18.284Z,58.03
2023-02-13T09:45:50.745Z,52.58
2023-02-13T09:48:31.435Z,53.42
2023-02-13T09:51:03.503Z,52.50
2023-02-13T09:53:33.437Z,55.00
2023-02-13T09:56:19.443Z,54.35
2023-02-13T09:58:50.977Z,50.22
2023-02-13T10:01:29.173Z,47.72
2023-02-13T10:04:33.833Z,60.85
2023-02-13T10:07:41.394Z,51.97
2023-02-13T10:10:30.267Z,54.97
2023-02-13T10:13:18.042Z,52.33
2023-02-13T10:15:55.487Z,50.13
2023-02-13T10:18:32.210Z,55.65
2023-02-13T10:21:06.305Z,54.70
2023-02-13T10:23:43.913Z,50.83
2023-02-13T10:26:20.727Z,47.92
2023-02-13T10:29:11.401Z,45.00
2023-02-13T10:31:49.071Z,49.55
2023-02-13T10:34:19.321Z,48.67
2023-02-13T10:36:50.132Z,45.95
2023-02-13T10:39:29.022Z,46.63
2023-02-13T10:42:07.901Z,41.50
2023-02-13T10:44:53.578Z,47.40
2023-02-13T10:50:15.473Z,47.22
2023-02-13T10:52:58.357Z,50.88
2023-02-13T10:55:53.648Z,49.55
2023-02-13T10:58:31.548Z,45.47
2023-02-13T11:01:08.344Z,45.97
2023-02-13T11:03:37.167Z,46.85
2023-02-13T11:06:14.002Z,49.47
2023-02-13T11:08:48.943Z,46.67
2023-02-13T11:11:35.797Z,46.67
2023-02-13T11:14:18.443Z,47.42
2023-02-13T11:16:57.272Z,45.55
2023-02-13T11:19:34.143Z,43.47
2023-02-13T11:22:10.860Z,46.13
2023-02-13T11:24:44.320Z,46.75
2023-02-13T11:27:15.020Z,47.42
2023-02-13T11:29:58.958Z,44.95
2023-02-13T11:32:32.045Z,41.00
2023-02-13T11:35:28.357Z,44.05
2023-02-13T11:38:21.071Z,45.05
2023-02-13T11:41:04.708Z,42.72
2023-02-13T11:43:39.401Z,48.00
2023-02-13T11:46:18.405Z,43.53
2023-02-13T11:49:01.504Z,52.15
2023-02-13T11:51:46.868Z,44.47
2023-02-13T11:54:41.452Z,48.75
2023-02-13T11:57:24.700Z,51.03
2023-02-13T11:59:55.023Z,44.10
2023-02-13T12:02:26.406Z,41.22
2023-02-13T12:05:16.328Z,38.67
2023-02-13T12:07:47.710Z,40.15
2023-02-13T12:10:26.561Z,38.63
2023-02-13T12:12:59.541Z,37.72
2023-02-13T12:15:31.463Z,43.78
2023-02-13T12:18:12.355Z,39.22
2023-02-13T12:20:54.323Z,40.30
2023-02-13T12:23:35.262Z,44.00
2023-02-13T12:26:24.280Z,40.92
2023-02-13T12:29:34.308Z,37.28
2023-02-13T12:32:15.075Z,39.50
2023-02-13T12:35:33.241Z,40.78
2023-02-13T12:38:09.949Z,39.72
2023-02-13T12:41:21.034Z,41.45
2023-02-13T12:44:30.115Z,40.28
2023-02-13T12:47:16.547Z,40.80
2023-02-13T12:50:25.065Z,42.53
2023-02-13T12:53:30.472Z,45.20
2023-02-13T12:56:25.864Z,41.40
2023-02-13T12:59:11.612Z,39.88
2023-02-13T13:02:11.526Z,38.80
2023-02-13T13:04:56.107Z,39.80
2023-02-13T13:07:47.705Z,35.92
2023-02-13T13:10:43.155Z,41.05
2023-02-13T13:13:26.349Z,37.53
2023-02-13T13:16:09.430Z,32.65
2023-02-13T13:18:57.128Z,34.42
2023-02-13T13:21:47.610Z,37.55
2023-02-13T13:24:35.121Z,32.97
2023-02-13T13:27:05.460Z,38.22
2023-02-13T13:29:45.788Z,36.25
2023-02-13T13:32:22.692Z,34.50
2023-02-13T13:34:52.092Z,34.33
2023-02-13T13:37:32.269Z,33.55
2023-02-13T13:40:07.589Z,33.13
2023-02-13T13:42:43.576Z,35.05
2023-02-13T13:45:28.627Z,35.42
2023-02-13T13:48:53.346Z,33.30
2023-02-13T13:51:22.795Z,37.92
2023-02-13T13:54:34.916Z,34.78
2023-02-13T13:57:12.632Z,32.75
2023-02-13T14:00:27.304Z,36.50
2023-02-13T14:03:35.910Z,34.30
2023-02-13T14:06:10.235Z,37.75
2023-02-13T14:09:30.064Z,30.60
2023-02-13T14:12:02.633Z,32.25
2023-02-13T14:14:55.887Z,31.02
2023-02-13T14:17:55.259Z,35.55
2023-02-13T14:20:45.537Z,36.25
2023-02-13T14:23:53.490Z,33.50
2023-02-13T14:26:37.267Z,31.65
2023-02-13T14:29:33.029Z,34.00
2023-02-13T14:32:24.332Z,36.53
2023-02-13T14:35:00.584Z,31.63
2023-02-13T14:37:40.449Z,38.58
2023-02-13T14:40:47.444Z,31.80
2023-02-13T14:43:37.322Z,31.33
2023-02-13T14:46:18.838Z,33.17
2023-02-13T14:48:54.440Z,30.55
2023-02-13T14:51:35.243Z,30.48
2023-02-13T14:54:18.885Z,32.22
2023-02-13T14:56:51.030Z,28.92
2023-02-13T14:59:24.101Z,25.30
2023-02-13T15:02:00.417Z,29.42
2023-02-13T15:04:36.815Z,31.75
2023-02-13T15:07:08.291Z,33.35
2023-02-13T15:09:42.733Z,30.60
2023-02-13T15:12:29.118Z,30.25
2023-02-13T15:14:57.710Z,31.65
2023-02-13T15:17:33.871Z,30.02
2023-02-13T15:20:21.797Z,32.35
2023-02-13T15:22:50.764Z,29.30
2023-02-13T15:25:30.635Z,27.17
2023-02-13T15:28:00.665Z,30.85
2023-02-13T15:30:30.827Z,32.05
2023-02-13T15:33:02.879Z,27.92
2023-02-13T15:35:34.723Z,30.27
2023-02-13T15:38:21.815Z,31.07
2023-02-13T15:40:53.621Z,49.42
2023-02-13T15:43:33.418Z,30.40
2023-02-13T15:46:06.369Z,31.35
2023-02-13T15:48:36.955Z,32.45
2023-02-13T15:51:06.586Z,30.10
2023-02-13T15:53:38.931Z,39.00
2023-02-13T15:56:15.911Z,30.08
2023-02-13T15:58:44.985Z,31.38
2023-02-13T16:01:18.201Z,36.17
2023-02-13T16:03:50.296Z,34.67
2023-02-13T16:06:22.228Z,34.17
2023-02-13T16:08:55.223Z,31.58
2023-02-13T16:11:38.298Z,34.80
2023-02-13T16:14:21.834Z,34.58
2023-02-13T16:17:07.005Z,37.67
2023-02-13T16:19:57.149Z,35.63
2023-02-13T16:22:37.153Z,33.75
2023-02-13T16:25:22.632Z,31.27
2023-02-13T16:27:57.754Z,38.17
2023-02-13T16:30:38.494Z,34.55
2023-02-13T16:33:29.801Z,33.63
2023-02-13T16:36:00.856Z,36.13
2023-02-13T16:38:35.894Z,51.13
2023-02-13T16:41:08.078Z,41.08
2023-02-13T16:43:45.357Z,35.65
2023-02-13T16:46:25.919Z,38.40
2023-02-13T16:49:17.797Z,46.03
2023-02-13T16:51:52.857Z,39.50
2023-02-13T16:54:38.236Z,37.63
2023-02-13T16:57:23.886Z,41.58
2023-02-13T17:00:09.761Z,40.35
2023-02-13T17:05:22.714Z,34.80
2023-02-13T17:07:53.480Z,41.95
2023-02-13T17:10:27.290Z,40.38
2023-02-13T17:12:58.301Z,44.08
2023-02-13T17:15:31.391Z,43.65
2023-02-13T17:18:01.014Z,42.83
2023-02-13T17:20:33.286Z,40.30
2023-02-13T17:23:04.851Z,45.58
2023-02-13T17:25:35.742Z,40.08
2023-02-13T17:28:14.386Z,46.83
2023-02-13T17:30:47.767Z,43.85
2023-02-13T17:33:23.169Z,47.47
2023-02-13T17:38:20.910Z,42.65
2023-02-13T17:40:50.382Z,48.45
2023-02-13T17:43:20.726Z,48.58
2023-02-13T17:45:51.558Z,43.58
2023-02-13T17:48:24.058Z,47.65
2023-02-13T17:50:53.252Z,46.58
2023-02-13T17:53:26.144Z,43.33
2023-02-13T17:55:55.356Z,45.65
2023-02-13T17:58:24.139Z,45.75
2023-02-13T18:00:54.431Z,54.65
2023-02-13T18:03:23.197Z,58.78
2023-02-13T18:05:51.742Z,58.70
2023-02-13T18:08:20.241Z,52.95
2023-02-13T18:10:49.019Z,47.97
2023-02-13T18:13:17.668Z,49.08
2023-02-13T18:15:46.874Z,43.15
2023-02-13T18:18:18.923Z,56.13
2023-02-13T18:20:47.719Z,46.75
2023-02-13T18:23:16.291Z,44.90
2023-02-13T18:25:44.882Z,51.83
2023-02-13T18:28:14.299Z,49.33
2023-02-13T18:30:43.995Z,48.78
2023-02-13T18:33:13.025Z,51.42
2023-02-13T18:35:43.923Z,50.78
2023-02-13T18:38:13.805Z,53.00
2023-02-13T18:40:42.992Z,48.85
2023-02-13T18:43:15.756Z,53.78
2023-02-13T18:45:46.778Z,52.42
2023-02-13T18:48:15.954Z,55.15
2023-02-13T18:50:46.099Z,52.65
2023-02-13T18:53:14.982Z,59.47
2023-02-13T18:55:43.634Z,52.33
2023-02-13T18:58:12.358Z,55.72
2023-02-13T19:00:40.892Z,56.63
2023-02-13T19:03:09.409Z,61.17
2023-02-13T19:05:42.685Z,68.05
2023-02-13T19:08:12.997Z,69.50
2023-02-13T19:10:41.792Z,72.80
2023-02-13T19:13:10.338Z,75.65
2023-02-13T19:15:38.917Z,74.35
2023-02-13T19:18:08.001Z,86.65
2023-02-13T19:20:38.521Z,76.53
2023-02-13T19:23:11.507Z,75.20
2023-02-13T19:25:40.322Z,71.88
2023-02-13T19:28:09.191Z,85.50
2023-02-13T19:30:38.977Z,85.90
2023-02-13T19:33:07.896Z,70.65
2023-02-13T19:35:37.017Z,76.15
2023-02-13T19:38:05.988Z,77.90
2023-02-13T19:40:39.285Z,77.88
2023-02-13T19:43:08.165Z,81.72
2023-02-13T19:45:38.230Z,76.75
2023-02-13T19:48:09.810Z,79.50
2023-02-13T19:50:39.241Z,81.75
2023-02-13T19:53:08.913Z,82.97
2023-02-13T19:55:39.070Z,76.88
2023-02-13T19:58:07.948Z,77.40
2023-02-13T20:00:36.754Z,96.25
2023-02-13T20:03:05.999Z,81.50
2023-02-13T20:05:41.088Z,82.72
2023-02-13T20:08:09.725Z,76.35
2023-02-13T20:10:46.902Z,75.63
2023-02-13T20:13:22.825Z,83.68
2023-02-13T20:15:55.648Z,100.55
2023-02-13T20:18:24.365Z,93.78
2023-02-13T20:20:53.057Z,103.22
2023-02-13T20:23:21.665Z,88.38
2023-02-13T20:25:51.659Z,89.00
2023-02-13T20:28:20.576Z,91.28
2023-02-13T20:30:49.213Z,91.57
2023-02-13T20:33:19.168Z,91.00
2023-02-13T20:35:48.124Z,92.38
2023-02-13T20:38:17.235Z,92.13
2023-02-13T20:40:46.773Z,92.72
2023-02-13T20:43:17.660Z,92.53
2023-02-13T20:45:46.393Z,92.55
2023-02-13T20:48:15.064Z,92.15
2023-02-13T20:50:43.982Z,94.95
2023-02-13T20:53:13.136Z,91.35
2023-02-13T20:55:43.254Z,87.55
2023-02-13T20:58:11.738Z,99.97
2023-02-13T21:00:43.369Z,105.20
2023-02-13T21:03:14.186Z,101.38
2023-02-13T21:05:42.917Z,100.30
2023-02-13T21:08:11.970Z,99.70
2023-02-13T21:10:40.671Z,100.65
2023-02-13T21:13:10.456Z,103.13
2023-02-13T21:15:41.206Z,95.72
2023-02-13T21:18:09.895Z,101.50
2023-02-13T21:20:41.832Z,95.13
2023-02-13T21:23:10.616Z,100.45
2023-02-13T21:25:39.150Z,99.18
2023-02-13T21:28:07.965Z,95.70
2023-02-13T21:30:38.204Z,100.53
2023-02-13T21:33:10.795Z,102.22
2023-02-13T21:35:39.740Z,108.30
2023-02-13T21:38:08.863Z,110.30
2023-02-13T21:40:37.943Z,112.47
2023-02-13T21:43:07.213Z,112.60
2023-02-13T21:45:36.994Z,110.75
2023-02-13T21:48:07.862Z,116.43
2023-02-13T21:50:36.345Z,109.43
2023-02-13T21:53:07.417Z,114.97
2023-02-13T21:55:36.316Z,117.32
2023-02-13T21:58:04.951Z,144.75
2023-02-13T22:00:34.063Z,143.60
2023-02-13T22:03:02.814Z,143.30
2023-02-13T22:05:33.945Z,132.13
2023-02-13T22:08:11.932Z,135.02
2023-02-13T22:10:41.063Z,134.32
2023-02-13T22:13:10.243Z,129.48
2023-02-13T22:15:39.352Z,121.00
2023-02-13T22:18:08.128Z,125.93
2023-02-13T22:20:40.026Z,121.30
2023-02-13T22:23:08.656Z,123.32
2023-02-13T22:25:37.247Z,133.68
2023-02-13T22:28:06.433Z,119.65
2023-02-13T22:30:37.682Z,120.82
2023-02-13T22:33:06.605Z,119.18
2023-02-13T22:35:41.189Z,125.80
2023-02-13T22:38:10.978Z,120.72
2023-02-13T22:40:41.366Z,120.50
2023-02-13T22:43:12.708Z,121.57
2023-02-13T22:45:41.481Z,125.00
2023-02-13T22:48:10.569Z,124.45
2023-02-13T22:50:41.236Z,117.47
2023-02-13T22:53:09.970Z,128.38
2023-02-13T22:55:38.556Z,132.55
2023-02-13T22:58:10.535Z,136.98
2023-02-13T23:00:39.220Z,133.50
2023-02-13T23:03:07.927Z,143.27
2023-02-13T23:05:39.663Z,136.25
2023-02-13T23:08:14.733Z,133.25
2023-02-13T23:10:43.813Z,133.25
2023-02-13T23:13:11.670Z,138.63
2023-02-13T23:15:40.726Z,141.40
2023-02-13T23:18:14.063Z,132.45
2023-02-13T23:20:43.448Z,135.75
2023-02-13T23:23:13.811Z,144.10
2023-02-13T23:25:42.596Z,139.25
2023-02-13T23:28:11.463Z,137.90
2023-02-13T23:30:41.497Z,135.05
2023-02-13T23:33:10.147Z,133.80
2023-02-13T23:35:38.927Z,130.88
2023-02-13T23:38:07.350Z,143.85
2023-02-13T23:40:37.785Z,137.82
2023-02-13T23:43:07.286Z,135.20
2023-02-13T23:45:35.949Z,136.27
2023-02-13T23:48:04.895Z,137.13
2023-02-13T23:50:34.332Z,140.18
2023-02-13T23:53:02.927Z,151.88
2023-02-13T23:55:31.823Z,150.18
2023-02-13T23:58:02.348Z,157.35
